EZY379 EDXW-EDDV
Flight info
| Callsign | EZY379 |
|---|---|
| Flight time | 0h 37m |
| Altitude | 15000 |
| Route | OLDIP1A OLDIP DCT BADOS DCT OMWEG Y348 HABFU Z88 NIE |
| Aircraft | A20N/M-SDE2E3FGHIRWXY/LB1 |
Departure
| Time | 2026-04-21 13:28 |
|---|---|
| Airport | Westerland Sylt Airport (EDXW) |
Arrival
| Time | 2026-04-21 14:06 |
|---|---|
| Airport | Hannover Airport (EDDV) |
| Time | Latitude | Longitude | Altitude | Speed | Heading |
|---|---|---|---|---|---|
| 2026-04-21 13:15 | 54.92024 | 8.33887 | 51 ft | 0 kts | 86° |
| 2026-04-21 13:25 | 54.92024 | 8.33889 | 51 ft | 1 kts | 82° |
| 2026-04-21 13:26 | 54.92029 | 8.33893 | 48 ft | 1 kts | 22° |
| 2026-04-21 13:26 | 54.92033 | 8.33888 | 48 ft | 1 kts | 331° |
| 2026-04-21 13:26 | 54.92034 | 8.33870 | 47 ft | 4 kts | 275° |
| 2026-04-21 13:26 | 54.92015 | 8.33772 | 49 ft | 13 kts | 240° |
| 2026-04-21 13:27 | 54.91973 | 8.33649 | 44 ft | 17 kts | 248° |
| 2026-04-21 13:27 | 54.91955 | 8.33430 | 42 ft | 20 kts | 258° |
| 2026-04-21 13:27 | 54.91893 | 8.33351 | 45 ft | 9 kts | 159° |
| 2026-04-21 13:27 | 54.91774 | 8.33491 | 48 ft | 49 kts | 144° |
| 2026-04-21 13:28 | 54.91206 | 8.34191 | 51 ft | 151 kts | 145° |
| 2026-04-21 13:28 | 54.90203 | 8.35444 | 502 ft | 194 kts | 144° |
| 2026-04-21 13:28 | 54.89093 | 8.36832 | 1562 ft | 192 kts | 146° |
| 2026-04-21 13:28 | 54.88013 | 8.38162 | 2779 ft | 193 kts | 146° |
| 2026-04-21 13:29 | 54.86835 | 8.39606 | 3515 ft | 226 kts | 146° |
| 2026-04-21 13:29 | 54.85445 | 8.41311 | 3878 ft | 259 kts | 146° |
| 2026-04-21 13:29 | 54.83953 | 8.43148 | 3980 ft | 267 kts | 145° |
| 2026-04-21 13:29 | 54.82425 | 8.45036 | 4003 ft | 268 kts | 145° |
| 2026-04-21 13:30 | 54.80917 | 8.46896 | 4061 ft | 269 kts | 145° |
| 2026-04-21 13:30 | 54.79360 | 8.48813 | 4623 ft | 280 kts | 145° |
| 2026-04-21 13:30 | 54.77743 | 8.50802 | 5902 ft | 282 kts | 145° |
| 2026-04-21 13:30 | 54.76160 | 8.52748 | 7442 ft | 277 kts | 145° |
| 2026-04-21 13:31 | 54.74579 | 8.54689 | 8713 ft | 280 kts | 145° |
| 2026-04-21 13:31 | 54.72982 | 8.56647 | 9855 ft | 285 kts | 145° |
| 2026-04-21 13:31 | 54.71344 | 8.58654 | 10991 ft | 290 kts | 145° |
| 2026-04-21 13:31 | 54.69675 | 8.60697 | 12120 ft | 295 kts | 145° |
| 2026-04-21 13:32 | 54.67988 | 8.62759 | 13230 ft | 300 kts | 145° |
| 2026-04-21 13:32 | 54.66262 | 8.64868 | 14174 ft | 305 kts | 145° |
| 2026-04-21 13:32 | 54.64536 | 8.66972 | 14746 ft | 309 kts | 145° |
| 2026-04-21 13:32 | 54.62780 | 8.69117 | 14974 ft | 311 kts | 145° |
| 2026-04-21 13:33 | 54.61087 | 8.71460 | 15002 ft | 313 kts | 139° |
| 2026-04-21 13:33 | 54.59502 | 8.74013 | 15001 ft | 314 kts | 136° |
| 2026-04-21 13:33 | 54.57956 | 8.76714 | 14997 ft | 315 kts | 134° |
| 2026-04-21 13:33 | 54.56437 | 8.79456 | 15002 ft | 315 kts | 134° |
| 2026-04-21 13:34 | 54.55167 | 8.81760 | 14999 ft | 315 kts | 134° |
| 2026-04-21 13:34 | 54.53648 | 8.84500 | 15002 ft | 314 kts | 134° |
| 2026-04-21 13:34 | 54.52130 | 8.87207 | 15000 ft | 313 kts | 134° |
| 2026-04-21 13:34 | 54.50615 | 8.89881 | 15002 ft | 313 kts | 134° |
| 2026-04-21 13:35 | 54.49078 | 8.92572 | 15002 ft | 325 kts | 135° |
| 2026-04-21 13:35 | 54.47384 | 8.95512 | 14984 ft | 365 kts | 135° |
| 2026-04-21 13:35 | 54.45515 | 8.98753 | 14995 ft | 399 kts | 135° |
| 2026-04-21 13:35 | 54.43506 | 9.02242 | 14995 ft | 415 kts | 135° |
| 2026-04-21 13:36 | 54.41486 | 9.05747 | 14999 ft | 419 kts | 135° |
| 2026-04-21 13:36 | 54.39432 | 9.09304 | 14997 ft | 419 kts | 135° |
| 2026-04-21 13:36 | 54.37126 | 9.12326 | 15000 ft | 419 kts | 152° |
| 2026-04-21 13:36 | 54.34392 | 9.14040 | 15001 ft | 418 kts | 166° |
| 2026-04-21 13:37 | 54.31527 | 9.14920 | 15002 ft | 418 kts | 173° |
| 2026-04-21 13:37 | 54.28633 | 9.15354 | 14997 ft | 418 kts | 176° |
| 2026-04-21 13:37 | 54.25708 | 9.15606 | 14997 ft | 418 kts | 178° |
| 2026-04-21 13:37 | 54.22802 | 9.15825 | 14999 ft | 418 kts | 178° |
| 2026-04-21 13:38 | 54.19893 | 9.16081 | 15003 ft | 418 kts | 177° |
| 2026-04-21 13:38 | 54.16990 | 9.16390 | 15002 ft | 418 kts | 176° |
| 2026-04-21 13:38 | 54.14101 | 9.16745 | 14997 ft | 418 kts | 176° |
| 2026-04-21 13:38 | 54.11192 | 9.17133 | 14997 ft | 418 kts | 175° |
| 2026-04-21 13:39 | 54.08295 | 9.17539 | 14999 ft | 418 kts | 175° |
| 2026-04-21 13:39 | 54.05389 | 9.17951 | 15000 ft | 418 kts | 175° |
| 2026-04-21 13:39 | 54.02497 | 9.18359 | 15003 ft | 418 kts | 175° |
| 2026-04-21 13:39 | 53.99623 | 9.18764 | 14998 ft | 418 kts | 175° |
| 2026-04-21 13:40 | 53.96691 | 9.19175 | 14765 ft | 412 kts | 175° |
| 2026-04-21 13:40 | 53.93891 | 9.19565 | 14290 ft | 411 kts | 175° |
| 2026-04-21 13:40 | 53.91013 | 9.19965 | 14142 ft | 414 kts | 175° |
| 2026-04-21 13:40 | 53.88148 | 9.20362 | 13928 ft | 412 kts | 175° |
| 2026-04-21 13:41 | 53.85286 | 9.20758 | 13750 ft | 412 kts | 175° |
| 2026-04-21 13:41 | 53.82436 | 9.21149 | 13575 ft | 411 kts | 175° |
| 2026-04-21 13:41 | 53.79587 | 9.21540 | 13367 ft | 409 kts | 175° |
| 2026-04-21 13:41 | 53.76812 | 9.21923 | 13119 ft | 391 kts | 175° |
| 2026-04-21 13:42 | 53.74168 | 9.22289 | 12879 ft | 370 kts | 175° |
| 2026-04-21 13:42 | 53.71663 | 9.22634 | 12641 ft | 353 kts | 175° |
| 2026-04-21 13:42 | 53.69284 | 9.22962 | 12375 ft | 338 kts | 175° |
| 2026-04-21 13:42 | 53.66968 | 9.23280 | 11880 ft | 332 kts | 175° |
| 2026-04-21 13:43 | 53.64687 | 9.23592 | 11581 ft | 321 kts | 175° |
| 2026-04-21 13:43 | 53.62512 | 9.23889 | 11399 ft | 307 kts | 175° |
| 2026-04-21 13:43 | 53.60418 | 9.24174 | 11148 ft | 297 kts | 175° |
| 2026-04-21 13:43 | 53.58371 | 9.24454 | 10770 ft | 293 kts | 175° |
| 2026-04-21 13:44 | 53.56343 | 9.24731 | 10341 ft | 291 kts | 175° |
| 2026-04-21 13:44 | 53.54334 | 9.25004 | 9904 ft | 289 kts | 175° |
| 2026-04-21 13:44 | 53.52327 | 9.25276 | 9451 ft | 287 kts | 175° |
| 2026-04-21 13:44 | 53.50343 | 9.25544 | 9004 ft | 285 kts | 175° |
| 2026-04-21 13:45 | 53.48376 | 9.25811 | 8549 ft | 283 kts | 176° |
| 2026-04-21 13:45 | 53.46445 | 9.26072 | 8115 ft | 281 kts | 176° |
| 2026-04-21 13:45 | 53.44496 | 9.26335 | 7661 ft | 279 kts | 176° |
| 2026-04-21 13:45 | 53.42554 | 9.26597 | 7225 ft | 277 kts | 176° |
| 2026-04-21 13:46 | 53.40642 | 9.26856 | 7024 ft | 276 kts | 176° |
| 2026-04-21 13:46 | 53.38726 | 9.27115 | 7004 ft | 277 kts | 176° |
| 2026-04-21 13:46 | 53.36809 | 9.27375 | 6998 ft | 277 kts | 175° |
| 2026-04-21 13:46 | 53.34889 | 9.27635 | 7004 ft | 277 kts | 176° |
| 2026-04-21 13:47 | 53.32975 | 9.27893 | 7000 ft | 277 kts | 176° |
| 2026-04-21 13:47 | 53.31048 | 9.28151 | 6997 ft | 277 kts | 176° |
| 2026-04-21 13:47 | 53.29129 | 9.28409 | 6997 ft | 277 kts | 176° |
| 2026-04-21 13:47 | 53.27208 | 9.28668 | 7000 ft | 277 kts | 176° |
| 2026-04-21 13:48 | 53.25288 | 9.28925 | 7000 ft | 277 kts | 176° |
| 2026-04-21 13:48 | 53.23390 | 9.29179 | 7003 ft | 277 kts | 176° |
| 2026-04-21 13:48 | 53.21451 | 9.29439 | 7001 ft | 277 kts | 176° |
| 2026-04-21 13:48 | 53.19557 | 9.29693 | 6996 ft | 277 kts | 176° |
| 2026-04-21 13:49 | 53.17630 | 9.29951 | 7000 ft | 277 kts | 176° |
| 2026-04-21 13:49 | 53.15720 | 9.30206 | 6997 ft | 277 kts | 176° |
| 2026-04-21 13:49 | 53.13771 | 9.30467 | 7004 ft | 277 kts | 176° |
| 2026-04-21 13:49 | 53.11875 | 9.30719 | 7001 ft | 277 kts | 175° |
| 2026-04-21 13:50 | 53.09957 | 9.30968 | 6994 ft | 277 kts | 177° |
| 2026-04-21 13:50 | 53.08032 | 9.30965 | 7003 ft | 276 kts | 183° |
| 2026-04-21 13:50 | 53.06105 | 9.30796 | 7004 ft | 276 kts | 184° |
| 2026-04-21 13:50 | 53.04830 | 9.30672 | 6999 ft | 276 kts | 184° |
| 2026-04-21 13:51 | 53.02906 | 9.30483 | 6995 ft | 276 kts | 184° |
| 2026-04-21 13:51 | 53.00990 | 9.30294 | 7001 ft | 276 kts | 184° |
| 2026-04-21 13:51 | 52.99070 | 9.30105 | 7001 ft | 276 kts | 184° |
| 2026-04-21 13:51 | 52.97147 | 9.29916 | 7003 ft | 276 kts | 184° |
| 2026-04-21 13:52 | 52.94602 | 9.29666 | 7000 ft | 276 kts | 184° |
| 2026-04-21 13:52 | 52.92686 | 9.29478 | 7002 ft | 276 kts | 184° |
| 2026-04-21 13:52 | 52.91392 | 9.29351 | 6965 ft | 276 kts | 184° |
| 2026-04-21 13:52 | 52.89474 | 9.29164 | 6946 ft | 276 kts | 184° |
| 2026-04-21 13:53 | 52.87551 | 9.28976 | 6997 ft | 276 kts | 184° |
| 2026-04-21 13:53 | 52.85658 | 9.28791 | 6996 ft | 276 kts | 184° |
| 2026-04-21 13:53 | 52.83740 | 9.28604 | 7001 ft | 276 kts | 184° |
| 2026-04-21 13:53 | 52.81846 | 9.28420 | 7006 ft | 264 kts | 184° |
| 2026-04-21 13:54 | 52.80087 | 9.28250 | 7027 ft | 241 kts | 184° |
| 2026-04-21 13:54 | 52.78465 | 9.28096 | 7017 ft | 228 kts | 184° |
| 2026-04-21 13:54 | 52.76881 | 9.27945 | 6996 ft | 228 kts | 184° |
| 2026-04-21 13:54 | 52.75299 | 9.27795 | 6958 ft | 227 kts | 184° |
| 2026-04-21 13:55 | 52.73735 | 9.27646 | 6724 ft | 224 kts | 184° |
| 2026-04-21 13:55 | 52.72191 | 9.27499 | 6365 ft | 220 kts | 184° |
| 2026-04-21 13:55 | 52.70674 | 9.27356 | 5969 ft | 217 kts | 184° |
| 2026-04-21 13:55 | 52.69186 | 9.27216 | 5507 ft | 217 kts | 184° |
| 2026-04-21 13:56 | 52.67681 | 9.27074 | 5068 ft | 215 kts | 184° |
| 2026-04-21 13:56 | 52.66187 | 9.26933 | 4648 ft | 214 kts | 184° |
| 2026-04-21 13:56 | 52.64702 | 9.26794 | 4215 ft | 213 kts | 184° |
| 2026-04-21 13:56 | 52.63226 | 9.26657 | 3799 ft | 211 kts | 184° |
| 2026-04-21 13:57 | 52.61756 | 9.26520 | 3371 ft | 210 kts | 184° |
| 2026-04-21 13:57 | 52.60316 | 9.26385 | 2969 ft | 209 kts | 184° |
| 2026-04-21 13:57 | 52.58866 | 9.26251 | 2719 ft | 208 kts | 184° |
| 2026-04-21 13:57 | 52.57417 | 9.26116 | 2677 ft | 209 kts | 184° |
| 2026-04-21 13:58 | 52.55968 | 9.25983 | 2667 ft | 208 kts | 184° |
| 2026-04-21 13:58 | 52.54514 | 9.25848 | 2677 ft | 212 kts | 184° |
| 2026-04-21 13:58 | 52.53028 | 9.25709 | 2664 ft | 215 kts | 184° |
| 2026-04-21 13:58 | 52.51532 | 9.25570 | 2671 ft | 214 kts | 183° |
| 2026-04-21 13:59 | 52.50054 | 9.25779 | 2672 ft | 215 kts | 168° |
| 2026-04-21 13:59 | 52.48594 | 9.26364 | 2680 ft | 215 kts | 166° |
| 2026-04-21 13:59 | 52.47274 | 9.27391 | 2666 ft | 215 kts | 136° |
| 2026-04-21 13:59 | 52.46565 | 9.29530 | 2675 ft | 215 kts | 105° |
| 2026-04-21 14:00 | 52.46380 | 9.31965 | 2677 ft | 216 kts | 92° |
| 2026-04-21 14:00 | 52.46335 | 9.34437 | 2672 ft | 216 kts | 92° |
| 2026-04-21 14:00 | 52.46285 | 9.36826 | 2670 ft | 204 kts | 92° |
| 2026-04-21 14:00 | 52.46231 | 9.39040 | 2684 ft | 179 kts | 92° |
| 2026-04-21 14:01 | 52.46180 | 9.40940 | 2676 ft | 157 kts | 92° |
| 2026-04-21 14:01 | 52.46133 | 9.42617 | 2673 ft | 141 kts | 92° |
| 2026-04-21 14:01 | 52.46089 | 9.44207 | 2674 ft | 139 kts | 92° |
| 2026-04-21 14:01 | 52.46048 | 9.45793 | 2666 ft | 139 kts | 92° |
| 2026-04-21 14:02 | 52.46009 | 9.47379 | 2607 ft | 139 kts | 92° |
| 2026-04-21 14:02 | 52.45968 | 9.48968 | 2436 ft | 139 kts | 92° |
| 2026-04-21 14:02 | 52.45929 | 9.50516 | 2274 ft | 130 kts | 92° |
| 2026-04-21 14:03 | 52.45855 | 9.53404 | 1896 ft | 126 kts | 92° |
| 2026-04-21 14:03 | 52.45818 | 9.54849 | 1725 ft | 127 kts | 92° |
| 2026-04-21 14:03 | 52.45781 | 9.56292 | 1559 ft | 126 kts | 92° |
| 2026-04-21 14:03 | 52.45744 | 9.57737 | 1383 ft | 126 kts | 92° |
| 2026-04-21 14:04 | 52.45708 | 9.59152 | 1224 ft | 126 kts | 92° |
| 2026-04-21 14:04 | 52.45671 | 9.60604 | 1055 ft | 125 kts | 92° |
| 2026-04-21 14:04 | 52.45635 | 9.62010 | 891 ft | 125 kts | 92° |
| 2026-04-21 14:04 | 52.45598 | 9.63433 | 725 ft | 125 kts | 92° |
| 2026-04-21 14:05 | 52.45563 | 9.64853 | 583 ft | 124 kts | 92° |
| 2026-04-21 14:05 | 52.45531 | 9.66271 | 460 ft | 124 kts | 92° |
| 2026-04-21 14:05 | 52.45504 | 9.67694 | 315 ft | 125 kts | 91° |
| 2026-04-21 14:05 | 52.45454 | 9.69065 | 207 ft | 113 kts | 94° |
| 2026-04-21 14:06 | 52.45428 | 9.70117 | 178 ft | 51 kts | 91° |
| 2026-04-21 14:06 | 52.45419 | 9.70501 | 182 ft | 24 kts | 91° |
| 2026-04-21 14:06 | 52.45438 | 9.70638 | 182 ft | 0 kts | 36° |
| 2026-04-21 14:06 | 52.45446 | 9.70647 | 182 ft | 2 kts | 34° |
| 2026-04-21 14:07 | 52.45464 | 9.70660 | 182 ft | 3 kts | 15° |
| 2026-04-21 14:07 | 52.45487 | 9.70666 | 182 ft | 4 kts | 7° |
| 2026-04-21 14:07 | 52.45511 | 9.70671 | 182 ft | 4 kts | 5° |
| 2026-04-21 14:07 | 52.45535 | 9.70672 | 183 ft | 3 kts | 355° |
| 2026-04-21 14:08 | 52.45555 | 9.70665 | 183 ft | 3 kts | 341° |
| 2026-04-21 14:08 | 52.45571 | 9.70641 | 182 ft | 5 kts | 311° |
| 2026-04-21 14:08 | 52.45582 | 9.70573 | 181 ft | 9 kts | 273° |